Weather at Yeonpyeong-Myeon Heliport

Public forecast

Using degrees Celsius for public forecast. Weather courtesy of forecast.io.

Closest aviation weather report (METAR) to Yeonpyeong-Myeon Heliport

Closest report is Incheon International Airport, 37.7 nm (69.8 km) ESE. Retrieved 2020/10/20 22:30 UTC (0 seconds ago):

RKSI 202230Z 14008KT CAVOK 14/08 Q1020 NOSIG

Closest aviation forecast (TAF) to Yeonpyeong-Myeon Heliport

Closest forecast is Incheon International Airport, 37.7 nm (69.8 km) ESE. Retrieved 2020/10/20 18:00 UTC (4 hours ago):

TAF RKSI 201700Z 2018/2124 16008KT 7000 FEW030 BKN120 TN13/2020Z TX18/2104Z TN13/2120Z BECMG 2103/2104 17015G25KT BECMG 2107/2108 18010KT SCT010 BKN025 OVC100 BECMG 2114/2115 24008KT 4000 -RA BECMG 2118/2119 33008KT BR BECMG 2121/2122 6000 NSW SCT030 BKN180